createdAt,value
2022-11-13T00:01:20.395Z,5.41
2022-11-13T00:03:47.672Z,5.32
2022-11-13T00:06:17.067Z,5.35
2022-11-13T00:08:45.064Z,5.36
2022-11-13T00:11:18.567Z,5.42
2022-11-13T00:13:46.800Z,5.30
2022-11-13T00:16:20.348Z,5.30
2022-11-13T00:18:48.351Z,5.39
2022-11-13T00:21:22.922Z,5.26
2022-11-13T00:23:51.712Z,5.20
2022-11-13T00:26:31.141Z,5.13
2022-11-13T00:29:03.227Z,5.20
2022-11-13T00:31:30.900Z,5.24
2022-11-13T00:36:47.965Z,5.10
2022-11-13T00:39:15.084Z,5.02
2022-11-13T00:41:42.969Z,5.09
2022-11-13T00:44:10.031Z,4.95
2022-11-13T00:46:37.026Z,4.99
2022-11-13T00:49:04.878Z,5.08
2022-11-13T00:51:32.338Z,5.14
2022-11-13T00:53:59.493Z,5.07
2022-11-13T00:56:26.926Z,5.04
2022-11-13T00:58:53.947Z,5.09
2022-11-13T01:01:21.587Z,5.12
2022-11-13T01:03:49.255Z,5.15
2022-11-13T01:06:25.871Z,5.22
2022-11-13T01:08:59.847Z,5.01
2022-11-13T01:11:30.797Z,5.22
2022-11-13T01:13:58.644Z,5.20
2022-11-13T01:16:28.172Z,5.28
2022-11-13T01:18:56.528Z,5.26
2022-11-13T01:21:27.536Z,5.23
2022-11-13T01:23:56.376Z,5.27
2022-11-13T01:26:28.518Z,5.23
2022-11-13T01:28:57.405Z,5.23
2022-11-13T01:31:28.496Z,5.29
2022-11-13T01:33:56.918Z,5.25
2022-11-13T01:36:27.919Z,5.28
2022-11-13T01:38:55.737Z,5.30
2022-11-13T01:41:31.249Z,5.35
2022-11-13T01:44:00.771Z,5.36
2022-11-13T01:46:35.160Z,5.36
2022-11-13T01:49:11.247Z,5.48
2022-11-13T01:52:00.395Z,5.35
2022-11-13T01:54:37.809Z,5.31
2022-11-13T01:57:05.712Z,5.39
2022-11-13T01:59:40.440Z,5.37
2022-11-13T02:02:08.063Z,5.43
2022-11-13T02:04:35.485Z,5.33
2022-11-13T02:07:08.461Z,5.31
2022-11-13T02:09:50.957Z,5.29
2022-11-13T02:12:30.921Z,5.33
2022-11-13T02:15:00.202Z,5.29
2022-11-13T02:17:52.828Z,5.18
2022-11-13T02:20:50.218Z,5.20
2022-11-13T02:23:49.913Z,5.15
2022-11-13T02:26:20.545Z,5.11
2022-11-13T02:28:47.997Z,5.00
2022-11-13T02:31:15.377Z,5.10
2022-11-13T02:33:42.529Z,5.07
2022-11-13T02:36:12.279Z,5.02
2022-11-13T02:38:41.525Z,5.01
2022-11-13T02:41:08.648Z,5.20
2022-11-13T02:43:36.126Z,5.14
2022-11-13T02:46:03.296Z,5.12
2022-11-13T02:48:30.775Z,5.10
2022-11-13T02:50:58.220Z,5.22
2022-11-13T02:53:25.250Z,5.17
2022-11-13T02:55:52.345Z,5.17
2022-11-13T02:58:19.830Z,5.20
2022-11-13T03:00:46.914Z,5.18
2022-11-13T03:03:14.090Z,5.25
2022-11-13T03:05:41.733Z,5.19
2022-11-13T03:08:09.249Z,5.17
2022-11-13T03:10:37.083Z,5.14
2022-11-13T03:13:04.170Z,5.23
2022-11-13T03:15:31.601Z,5.14
2022-11-13T03:18:03.253Z,5.20
2022-11-13T03:20:30.353Z,5.20
2022-11-13T03:22:57.522Z,5.18
2022-11-13T03:25:24.983Z,5.22
2022-11-13T03:27:52.083Z,5.10
2022-11-13T03:30:19.793Z,5.12
2022-11-13T03:32:46.945Z,5.09
2022-11-13T03:35:14.439Z,5.13
2022-11-13T03:37:41.490Z,4.92
2022-11-13T03:40:09.375Z,4.95
2022-11-13T03:42:36.796Z,4.83
2022-11-13T03:45:04.307Z,4.91
2022-11-13T03:47:31.725Z,4.79
2022-11-13T03:49:59.175Z,4.95
2022-11-13T03:52:26.276Z,4.80
2022-11-13T03:54:53.718Z,4.84
2022-11-13T03:57:20.766Z,4.70
2022-11-13T03:59:47.948Z,4.76
2022-11-13T04:02:15.171Z,4.85
2022-11-13T04:04:42.257Z,4.78
2022-11-13T04:07:09.739Z,4.65
2022-11-13T04:09:37.211Z,4.66
2022-11-13T04:12:04.448Z,4.73
2022-11-13T04:14:32.615Z,4.91
2022-11-13T04:16:59.639Z,4.91
2022-11-13T04:19:27.132Z,4.81
2022-11-13T04:21:54.587Z,4.67
2022-11-13T04:24:22.008Z,4.58
2022-11-13T04:26:49.441Z,4.58
2022-11-13T04:29:16.644Z,4.69
2022-11-13T04:31:43.770Z,4.62
2022-11-13T04:34:10.943Z,4.62
2022-11-13T04:36:38.102Z,4.57
2022-11-13T04:39:05.559Z,4.68
2022-11-13T04:41:55.169Z,4.60
2022-11-13T04:44:22.676Z,4.58
2022-11-13T04:46:49.716Z,4.55
2022-11-13T04:49:16.770Z,4.51
2022-11-13T04:51:43.883Z,4.55
2022-11-13T04:54:10.987Z,4.56
2022-11-13T04:56:38.067Z,4.53
2022-11-13T04:59:05.121Z,4.51
2022-11-13T05:01:32.209Z,4.50
2022-11-13T05:03:59.206Z,4.62
2022-11-13T05:06:26.280Z,4.61
2022-11-13T05:08:53.293Z,4.58
2022-11-13T05:11:20.390Z,4.53
2022-11-13T05:13:47.735Z,4.52
2022-11-13T05:16:15.559Z,4.44
2022-11-13T05:18:42.948Z,4.48
2022-11-13T05:21:10.544Z,4.47
2022-11-13T05:23:37.616Z,4.52
2022-11-13T05:26:12.254Z,4.53
2022-11-13T05:28:40.210Z,4.56
2022-11-13T05:31:14.130Z,4.55
2022-11-13T05:33:42.625Z,4.68
2022-11-13T05:36:15.090Z,4.62
2022-11-13T05:38:43.003Z,4.67
2022-11-13T05:41:19.220Z,4.60
2022-11-13T05:43:47.171Z,4.46
2022-11-13T05:46:19.078Z,4.55
2022-11-13T05:48:47.587Z,4.57
2022-11-13T05:51:18.294Z,4.66
2022-11-13T05:53:45.745Z,4.62
2022-11-13T05:56:19.756Z,4.65
2022-11-13T05:58:47.944Z,4.56
2022-11-13T06:01:25.549Z,4.58
2022-11-13T06:04:14.363Z,4.66
2022-11-13T06:06:58.677Z,4.68
2022-11-13T06:09:34.131Z,4.60
2022-11-13T06:12:01.222Z,4.62
2022-11-13T06:14:28.373Z,4.49
2022-11-13T06:16:55.434Z,4.48
2022-11-13T06:19:23.043Z,4.53
2022-11-13T06:21:50.103Z,4.51
2022-11-13T06:24:17.188Z,4.55
2022-11-13T06:26:44.681Z,4.57
2022-11-13T06:29:13.093Z,4.59
2022-11-13T06:31:40.822Z,4.45
2022-11-13T06:34:08.304Z,4.46
2022-11-13T06:36:37.372Z,4.52
2022-11-13T06:39:09.508Z,4.62
2022-11-13T06:41:39.577Z,4.69
2022-11-13T06:44:06.807Z,4.68
2022-11-13T06:46:34.559Z,4.57
2022-11-13T06:49:01.619Z,4.68
2022-11-13T06:51:31.533Z,4.66
2022-11-13T06:53:59.049Z,4.59
2022-11-13T06:56:26.827Z,4.68
2022-11-13T06:58:56.828Z,4.68
2022-11-13T07:01:27.111Z,4.75
2022-11-13T07:03:55.099Z,4.72
2022-11-13T07:06:24.295Z,4.72
2022-11-13T07:08:52.288Z,4.72
2022-11-13T07:11:22.482Z,4.78
2022-11-13T07:13:50.550Z,4.82
2022-11-13T07:16:18.642Z,4.89
2022-11-13T07:18:53.484Z,4.79
2022-11-13T07:21:22.360Z,4.77
2022-11-13T07:23:50.469Z,4.75
2022-11-13T07:26:18.090Z,4.79
2022-11-13T07:28:45.790Z,4.78
2022-11-13T07:31:14.912Z,4.85
2022-11-13T07:33:42.429Z,4.89
2022-11-13T07:36:10.685Z,4.84
2022-11-13T07:38:38.552Z,4.92
2022-11-13T07:41:06.520Z,4.99
2022-11-13T07:43:34.109Z,5.04
2022-11-13T07:46:02.035Z,4.97
2022-11-13T07:48:30.121Z,4.95
2022-11-13T07:51:01.782Z,4.96
2022-11-13T07:53:28.941Z,5.02
2022-11-13T07:55:56.269Z,4.98
2022-11-13T07:58:23.426Z,4.97
2022-11-13T08:00:50.997Z,5.07
2022-11-13T08:03:18.568Z,5.01
2022-11-13T08:05:45.709Z,4.87
2022-11-13T08:08:14.852Z,4.82
2022-11-13T08:10:42.698Z,4.92
2022-11-13T08:13:11.567Z,5.03
2022-11-13T08:15:39.581Z,5.08
2022-11-13T08:18:07.252Z,5.10
2022-11-13T08:20:35.009Z,5.15
2022-11-13T08:23:04.778Z,5.11
2022-11-13T08:25:36.129Z,5.13
2022-11-13T08:28:04.209Z,5.31
2022-11-13T08:30:32.832Z,5.27
2022-11-13T08:32:59.842Z,5.33
2022-11-13T08:35:29.626Z,5.23
2022-11-13T08:38:08.821Z,5.35
2022-11-13T08:40:36.470Z,5.49
2022-11-13T08:43:05.028Z,5.26
2022-11-13T08:45:33.010Z,5.41
2022-11-13T08:48:04.664Z,5.45
2022-11-13T08:50:33.973Z,5.44
2022-11-13T08:53:01.923Z,5.45
2022-11-13T08:55:29.668Z,5.55
2022-11-13T08:58:03.454Z,5.68
2022-11-13T09:00:32.747Z,5.53
2022-11-13T09:03:01.444Z,5.67
2022-11-13T09:05:28.815Z,5.80
2022-11-13T09:08:01.771Z,5.91
2022-11-13T09:10:29.569Z,5.84
2022-11-13T09:13:04.831Z,5.94
2022-11-13T09:15:32.926Z,6.02
2022-11-13T09:18:02.816Z,5.93
2022-11-13T09:20:32.406Z,6.05
2022-11-13T09:23:09.422Z,6.07
2022-11-13T09:25:38.183Z,6.05
2022-11-13T09:28:06.793Z,6.14
2022-11-13T09:30:34.004Z,6.20
2022-11-13T09:33:02.484Z,6.31
2022-11-13T09:35:34.950Z,6.37
2022-11-13T09:38:13.553Z,6.36
2022-11-13T09:41:26.392Z,6.36
2022-11-13T09:43:59.971Z,6.47
2022-11-13T09:46:51.921Z,6.50
2022-11-13T09:49:33.598Z,6.51
2022-11-13T09:52:14.295Z,6.70
2022-11-13T09:54:41.753Z,6.73
2022-11-13T09:57:59.456Z,6.79
2022-11-13T10:00:28.258Z,6.82
2022-11-13T10:03:39.501Z,6.99
2022-11-13T10:06:23.781Z,6.86
2022-11-13T10:08:58.798Z,7.03
2022-11-13T10:11:39.451Z,7.30
2022-11-13T10:14:24.451Z,7.47
2022-11-13T10:17:02.857Z,7.63
2022-11-13T10:19:44.824Z,7.76
2022-11-13T10:22:47.353Z,7.94
2022-11-13T10:25:29.308Z,8.09
2022-11-13T10:28:07.476Z,8.21
2022-11-13T10:30:43.275Z,8.33
2022-11-13T10:33:18.492Z,8.47
2022-11-13T10:36:22.462Z,8.59
2022-11-13T10:39:00.369Z,8.66
2022-11-13T10:41:27.383Z,8.62
2022-11-13T10:44:32.805Z,8.82
2022-11-13T10:47:42.540Z,8.93
2022-11-13T10:50:20.496Z,9.03
2022-11-13T10:52:50.829Z,8.97
2022-11-13T10:55:50.772Z,9.17
2022-11-13T10:58:20.099Z,9.25
2022-11-13T11:00:50.841Z,9.25
2022-11-13T11:03:24.408Z,9.29
2022-11-13T11:06:04.681Z,9.50
2022-11-13T11:08:35.346Z,9.33
2022-11-13T11:11:27.717Z,9.48
2022-11-13T11:14:28.904Z,9.32
2022-11-13T11:16:58.160Z,9.17
2022-11-13T11:19:29.421Z,9.46
2022-11-13T11:22:16.857Z,9.40
2022-11-13T11:25:23.848Z,9.28
2022-11-13T11:28:05.462Z,9.23
2022-11-13T11:30:51.374Z,9.09
2022-11-13T11:33:34.317Z,9.32
2022-11-13T11:36:13.589Z,8.91
2022-11-13T11:38:44.792Z,9.16
2022-11-13T11:41:18.585Z,9.10
2022-11-13T11:44:22.397Z,9.46
2022-11-13T11:46:50.210Z,9.38
2022-11-13T11:49:17.642Z,9.04
2022-11-13T11:51:49.666Z,9.19
2022-11-13T11:54:22.436Z,9.50
2022-11-13T11:56:53.957Z,9.86
2022-11-13T12:00:03.212Z,10.22
2022-11-13T12:03:18.379Z,9.88
2022-11-13T12:06:45.573Z,10.01
2022-11-13T12:09:33.713Z,9.97
2022-11-13T12:12:50.860Z,10.19
2022-11-13T12:15:54.287Z,10.48
2022-11-13T12:18:45.785Z,10.47
2022-11-13T12:21:24.999Z,10.92
2022-11-13T12:24:35.802Z,10.70
2022-11-13T12:27:20.889Z,10.86
2022-11-13T12:30:13.875Z,10.98
2022-11-13T12:32:46.950Z,11.32
2022-11-13T12:35:16.420Z,10.95
2022-11-13T12:38:07.711Z,11.14
2022-11-13T12:40:56.039Z,11.58
2022-11-13T12:43:43.746Z,11.37
2022-11-13T12:46:12.967Z,11.67
2022-11-13T12:48:43.847Z,11.74
2022-11-13T12:51:17.335Z,11.83
2022-11-13T12:53:54.178Z,11.75
2022-11-13T12:56:29.565Z,11.96
2022-11-13T12:59:30.559Z,12.07
2022-11-13T13:02:07.725Z,12.29
2022-11-13T13:04:54.715Z,12.41
2022-11-13T13:07:40.499Z,12.59
2022-11-13T13:10:35.168Z,12.56
2022-11-13T13:13:31.384Z,12.64
2022-11-13T13:16:04.956Z,12.90
2022-11-13T13:18:41.682Z,12.97
2022-11-13T13:21:15.838Z,12.76
2022-11-13T13:23:49.899Z,12.45
2022-11-13T13:26:29.076Z,12.90
2022-11-13T13:29:22.532Z,12.92
2022-11-13T13:32:15.512Z,13.05
2022-11-13T13:35:09.715Z,13.27
2022-11-13T13:38:05.302Z,12.79
2022-11-13T13:41:13.602Z,13.19
2022-11-13T13:43:51.002Z,13.07
2022-11-13T13:46:21.981Z,13.06
2022-11-13T13:48:53.381Z,13.08
2022-11-13T13:51:41.366Z,13.22
2022-11-13T13:54:10.258Z,13.11
2022-11-13T13:56:43.469Z,13.22
2022-11-13T13:59:46.271Z,12.97
2022-11-13T14:02:18.329Z,13.06
2022-11-13T14:04:48.767Z,13.14
2022-11-13T14:07:35.989Z,12.83
2022-11-13T14:10:15.036Z,13.23
2022-11-13T14:12:47.033Z,13.09
2022-11-13T14:15:34.521Z,12.92
2022-11-13T14:18:14.883Z,13.20
2022-11-13T14:20:56.145Z,12.98
2022-11-13T14:23:57.562Z,13.10
2022-11-13T14:26:24.848Z,12.96
2022-11-13T14:29:01.557Z,13.03
2022-11-13T14:31:34.751Z,12.99
2022-11-13T14:34:21.929Z,12.84
2022-11-13T14:37:02.191Z,12.71
2022-11-13T14:39:32.766Z,12.73
2022-11-13T14:42:00.893Z,12.82
2022-11-13T14:44:35.352Z,12.85
2022-11-13T14:47:08.676Z,12.69
2022-11-13T14:49:37.956Z,12.69
2022-11-13T14:52:07.298Z,12.62
2022-11-13T14:55:07.990Z,12.60
2022-11-13T14:57:24.745Z,12.35
2022-11-13T14:59:52.002Z,12.39
2022-11-13T15:02:20.385Z,12.27
2022-11-13T15:04:47.875Z,12.18
2022-11-13T15:07:29.576Z,12.31
2022-11-13T15:09:57.991Z,12.18
2022-11-13T15:12:25.344Z,12.08
2022-11-13T15:14:53.217Z,12.20
2022-11-13T15:17:23.486Z,11.88
2022-11-13T15:19:54.167Z,11.99
2022-11-13T15:22:29.033Z,11.77
2022-11-13T15:24:56.233Z,11.58
2022-11-13T15:27:26.394Z,11.33
2022-11-13T15:29:53.429Z,11.29
2022-11-13T15:32:20.439Z,11.18
2022-11-13T15:34:47.611Z,11.05
2022-11-13T15:37:17.171Z,10.97
2022-11-13T15:39:44.487Z,10.87
2022-11-13T15:42:16.192Z,10.90
2022-11-13T15:44:43.380Z,10.48
2022-11-13T15:47:38.748Z,10.34
2022-11-13T15:50:13.981Z,10.30
2022-11-13T15:52:46.934Z,10.24
2022-11-13T15:55:30.253Z,10.16
2022-11-13T15:57:58.414Z,10.03
2022-11-13T16:00:28.941Z,9.95
2022-11-13T16:03:00.790Z,9.77
2022-11-13T16:05:29.591Z,9.66
2022-11-13T16:07:57.688Z,9.65
2022-11-13T16:10:25.874Z,9.60
2022-11-13T16:12:53.755Z,9.49
2022-11-13T16:15:21.764Z,9.38
2022-11-13T16:17:55.425Z,9.31
2022-11-13T16:20:22.831Z,9.23
2022-11-13T16:22:50.293Z,9.24
2022-11-13T16:25:21.133Z,9.19
2022-11-13T16:27:48.455Z,9.06
2022-11-13T16:30:21.625Z,9.03
2022-11-13T16:32:49.125Z,8.95
2022-11-13T16:35:18.429Z,8.90
2022-11-13T16:37:46.056Z,8.90
2022-11-13T16:40:22.024Z,8.81
2022-11-13T16:42:49.209Z,8.76
2022-11-13T16:45:16.719Z,8.73
2022-11-13T16:47:45.289Z,8.70
2022-11-13T16:50:24.668Z,8.69
2022-11-13T16:52:52.625Z,8.55
2022-11-13T16:55:19.900Z,8.48
2022-11-13T16:57:47.281Z,8.40
2022-11-13T17:00:17.545Z,8.38
2022-11-13T17:02:44.748Z,8.35
2022-11-13T17:05:14.212Z,8.44
2022-11-13T17:07:41.976Z,8.36
2022-11-13T17:10:36.090Z,8.33
2022-11-13T17:13:03.356Z,8.36
2022-11-13T17:15:31.833Z,8.26
2022-11-13T17:17:59.692Z,8.25
2022-11-13T17:20:27.223Z,8.13
2022-11-13T17:22:54.662Z,8.04
2022-11-13T17:25:23.398Z,8.05
2022-11-13T17:27:50.683Z,8.07
2022-11-13T17:30:18.283Z,7.94
2022-11-13T17:32:45.355Z,7.90
2022-11-13T17:35:13.297Z,7.92
2022-11-13T17:37:40.657Z,7.99
2022-11-13T17:40:09.676Z,7.94
2022-11-13T17:42:36.738Z,7.92
2022-11-13T17:45:04.325Z,7.86
2022-11-13T17:47:34.288Z,7.97
2022-11-13T17:50:07.046Z,7.88
2022-11-13T17:52:34.869Z,7.95
2022-11-13T17:55:06.181Z,8.00
2022-11-13T17:57:33.796Z,7.93
2022-11-13T18:00:00.877Z,7.82
2022-11-13T18:02:28.240Z,7.83
2022-11-13T18:04:58.364Z,7.74
2022-11-13T18:07:25.918Z,7.69
2022-11-13T18:09:53.095Z,7.59
2022-11-13T18:12:22.794Z,7.51
2022-11-13T18:14:52.572Z,7.54
2022-11-13T18:17:21.063Z,7.47
2022-11-13T18:19:49.108Z,7.43
2022-11-13T18:22:16.799Z,7.27
2022-11-13T18:24:44.534Z,7.29
2022-11-13T18:27:11.649Z,7.32
2022-11-13T18:29:38.721Z,7.27
2022-11-13T18:32:05.835Z,7.30
2022-11-13T18:34:33.255Z,7.34
2022-11-13T18:37:00.515Z,7.32
2022-11-13T18:39:27.761Z,7.23
2022-11-13T18:41:59.294Z,7.16
2022-11-13T18:44:26.477Z,7.15
2022-11-13T18:46:54.137Z,7.11
2022-11-13T18:49:21.219Z,7.09
2022-11-13T18:51:48.247Z,7.15
2022-11-13T18:54:15.510Z,7.02
2022-11-13T18:56:42.658Z,7.01
2022-11-13T18:59:09.976Z,7.01
2022-11-13T19:01:39.804Z,6.84
2022-11-13T19:04:25.253Z,6.90
2022-11-13T19:06:52.518Z,6.83
2022-11-13T19:09:19.978Z,6.68
2022-11-13T19:11:47.535Z,6.51
2022-11-13T19:14:17.164Z,6.58
2022-11-13T19:16:44.416Z,6.66
2022-11-13T19:19:23.330Z,6.62
2022-11-13T19:21:52.165Z,6.52
2022-11-13T19:24:19.260Z,6.40
2022-11-13T19:26:46.331Z,6.23
2022-11-13T19:29:13.891Z,5.96
2022-11-13T19:31:41.942Z,5.67
2022-11-13T19:34:10.307Z,5.69
2022-11-13T19:36:37.603Z,5.67
2022-11-13T19:39:05.331Z,5.51
2022-11-13T19:41:32.407Z,5.63
2022-11-13T19:44:01.229Z,5.22
2022-11-13T19:46:34.292Z,5.12
2022-11-13T19:49:01.352Z,5.06
2022-11-13T19:51:28.376Z,4.91
2022-11-13T19:53:59.794Z,5.07
2022-11-13T19:56:28.744Z,4.78
2022-11-13T19:58:56.897Z,4.71
2022-11-13T20:01:27.087Z,4.82
2022-11-13T20:04:02.500Z,4.95
2022-11-13T20:06:32.006Z,4.91
2022-11-13T20:09:00.414Z,4.87
2022-11-13T20:11:28.016Z,4.79
2022-11-13T20:13:57.024Z,4.87
2022-11-13T20:16:24.717Z,4.71
2022-11-13T20:18:52.599Z,4.67
2022-11-13T20:21:27.615Z,4.57
2022-11-13T20:23:57.975Z,4.61
2022-11-13T20:26:25.356Z,4.17
2022-11-13T20:28:52.405Z,4.34
2022-11-13T20:31:22.784Z,4.36
2022-11-13T20:34:03.017Z,4.26
2022-11-13T20:36:29.948Z,4.24
2022-11-13T20:39:20.652Z,4.13
2022-11-13T20:41:47.655Z,4.01
2022-11-13T20:44:15.817Z,3.91
2022-11-13T20:46:43.098Z,3.91
2022-11-13T20:49:10.004Z,3.85
2022-11-13T20:51:36.973Z,3.74
2022-11-13T20:54:04.031Z,3.68
2022-11-13T20:56:31.011Z,3.53
2022-11-13T20:58:58.037Z,3.46
2022-11-13T21:01:26.407Z,3.40
2022-11-13T21:03:53.454Z,3.33
2022-11-13T21:06:24.751Z,3.26
2022-11-13T21:08:55.177Z,3.20
2022-11-13T21:11:25.485Z,3.25
2022-11-13T21:13:55.270Z,3.19
2022-11-13T21:16:22.758Z,3.19
2022-11-13T21:18:50.111Z,3.21
2022-11-13T21:21:21.967Z,3.20
2022-11-13T21:23:49.638Z,3.18
2022-11-13T21:26:16.644Z,3.31
2022-11-13T21:28:44.567Z,3.33
2022-11-13T21:31:18.312Z,3.44
2022-11-13T21:33:47.315Z,3.51
2022-11-13T21:36:23.925Z,3.64
2022-11-13T21:38:53.024Z,3.76
2022-11-13T21:41:21.491Z,3.86
2022-11-13T21:43:55.691Z,3.96
2022-11-13T21:46:25.012Z,4.04
2022-11-13T21:49:02.548Z,4.16
2022-11-13T21:51:30.974Z,4.23
2022-11-13T21:53:58.505Z,4.33
2022-11-13T21:56:27.644Z,4.41
2022-11-13T21:58:55.868Z,4.53
2022-11-13T22:01:24.260Z,4.62
2022-11-13T22:03:51.749Z,4.62
2022-11-13T22:06:22.578Z,4.71
2022-11-13T22:09:04.738Z,4.80
2022-11-13T22:11:35.163Z,4.85
2022-11-13T22:14:03.032Z,4.90
2022-11-13T22:16:32.801Z,4.96
2022-11-13T22:19:03.691Z,4.97
2022-11-13T22:21:31.743Z,5.03
2022-11-13T22:23:59.966Z,5.04
2022-11-13T22:26:28.908Z,5.07
2022-11-13T22:28:56.850Z,4.99
2022-11-13T22:31:27.410Z,4.87
2022-11-13T22:33:55.616Z,4.76
2022-11-13T22:36:32.041Z,4.78
2022-11-13T22:38:59.768Z,4.78
2022-11-13T22:41:31.089Z,4.85
2022-11-13T22:44:08.348Z,4.86
2022-11-13T22:46:36.375Z,4.87
2022-11-13T22:49:05.532Z,4.88
2022-11-13T22:51:41.090Z,4.93
2022-11-13T22:54:12.619Z,4.94
2022-11-13T22:56:41.472Z,4.99
2022-11-13T22:59:11.354Z,5.00
2022-11-13T23:01:40.042Z,5.03
2022-11-13T23:04:11.867Z,5.05
2022-11-13T23:06:38.983Z,5.03
2022-11-13T23:09:06.984Z,5.04
2022-11-13T23:11:38.091Z,5.09
2022-11-13T23:14:11.178Z,5.16
2022-11-13T23:16:38.951Z,5.12
2022-11-13T23:19:06.087Z,5.19
2022-11-13T23:21:33.543Z,5.18
2022-11-13T23:24:00.693Z,5.23
2022-11-13T23:26:28.441Z,5.28
2022-11-13T23:28:56.262Z,5.32
2022-11-13T23:31:23.921Z,5.35
2022-11-13T23:33:50.837Z,5.37
2022-11-13T23:36:20.729Z,5.39
2022-11-13T23:38:48.254Z,5.42
2022-11-13T23:41:15.180Z,5.46
2022-11-13T23:46:29.151Z,5.56
2022-11-13T23:48:56.255Z,5.58
2022-11-13T23:51:23.227Z,5.67
2022-11-13T23:53:50.163Z,5.65
2022-11-13T23:56:17.276Z,5.70
2022-11-13T23:58:44.272Z,5.74
